Time;durP1;ratioP1;P1;durP2;ratioP2;P2;SDS_P1;SDS_P2;PMS_P1;PMS_P2;Temp;Humidity;BMP_temperature;BMP_pressure;BME280_temperature;BME280_humidity;BME280_pressure;Samples;Min_cycle;Max_cycle;Signal;HPM_P1;HPM_P2
2023/01/03 00:00:43;;;;;;;16.40;8.65;;;4.70;99.90;;;;;;4992944;28;20019;-50
2023/01/03 00:03:13;;;;;;;15.50;8.63;;;4.70;99.90;;;;;;4992536;28;20066;-47
2023/01/03 00:05:38;;;;;;;14.50;8.32;;;4.70;99.90;;;;;;4992344;28;20488;-49
2023/01/03 00:08:04;;;;;;;13.20;8.23;;;4.80;99.90;;;;;;4992892;28;20039;-51
2023/01/03 00:10:30;;;;;;;10.85;6.38;;;4.90;99.90;;;;;;4991885;28;20029;-48
2023/01/03 00:12:56;;;;;;;11.10;6.95;;;5.00;99.90;;;;;;4993233;28;20037;-48
2023/01/03 00:15:22;;;;;;;13.15;6.70;;;5.30;99.90;;;;;;4992817;28;20041;-49
2023/01/03 00:17:49;;;;;;;8.60;5.85;;;5.40;99.90;;;;;;4992964;28;20121;-45
2023/01/03 00:20:15;;;;;;;11.38;6.85;;;5.50;99.90;;;;;;4992918;28;20030;-48
2023/01/03 00:22:41;;;;;;;11.20;6.20;;;5.60;99.90;;;;;;4992538;28;20371;-48
2023/01/03 00:25:06;;;;;;;9.80;6.65;;;5.70;99.90;;;;;;4992515;28;20022;-47
2023/01/03 00:27:32;;;;;;;14.48;7.68;;;5.80;99.90;;;;;;4992158;28;20058;-48
2023/01/03 00:29:58;;;;;;;9.63;6.53;;;5.80;99.90;;;;;;4993074;28;20057;-50
2023/01/03 00:32:23;;;;;;;16.02;7.07;;;5.90;99.90;;;;;;4992549;28;20109;-47
2023/01/03 00:34:49;;;;;;;12.18;6.75;;;6.00;99.90;;;;;;4992276;28;20028;-47
2023/01/03 00:37:15;;;;;;;14.57;8.18;;;6.10;99.90;;;;;;4992020;28;20039;-47
2023/01/03 00:39:40;;;;;;;14.27;6.38;;;6.10;99.90;;;;;;4991908;28;20069;-48
2023/01/03 00:42:06;;;;;;;11.40;5.40;;;6.30;99.90;;;;;;4992266;28;20030;-48
2023/01/03 00:44:32;;;;;;;10.93;5.57;;;6.40;99.90;;;;;;4992025;28;20026;-49
2023/01/03 00:46:58;;;;;;;8.80;3.85;;;6.40;99.90;;;;;;4991809;28;20029;-47
2023/01/03 00:49:24;;;;;;;8.30;4.07;;;6.50;99.90;;;;;;4991593;28;20046;-48
2023/01/03 00:51:50;;;;;;;8.48;4.00;;;6.60;99.90;;;;;;4991300;28;20026;-47
2023/01/03 00:54:16;;;;;;;6.20;4.30;;;6.60;99.90;;;;;;4991080;28;20058;-47
2023/01/03 00:56:43;;;;;;;9.90;3.90;;;6.70;99.90;;;;;;4991383;28;20241;-47
2023/01/03 00:59:10;;;;;;;9.82;4.05;;;6.70;99.90;;;;;;4991406;28;20114;-48
2023/01/03 01:01:47;;;;;;;10.20;4.13;;;6.80;99.90;;;;;;4991598;28;20022;-48
2023/01/03 01:04:33;;;;;;;10.73;4.25;;;6.80;99.90;;;;;;4978443;28;20026;-47
2023/01/03 01:07:02;;;;;;;11.57;5.03;;;6.80;99.90;;;;;;4991199;28;20382;-48
2023/01/03 01:09:31;;;;;;;14.30;4.70;;;6.90;99.90;;;;;;4991517;28;20113;-49
2023/01/03 01:11:57;;;;;;;12.07;4.78;;;6.90;99.90;;;;;;4991264;28;20484;-47
2023/01/03 01:14:25;;;;;;;10.93;5.03;;;7.00;99.90;;;;;;4991474;28;20039;-49
2023/01/03 01:16:50;;;;;;;9.10;4.85;;;7.00;99.90;;;;;;4991463;28;20038;-49
2023/01/03 01:19:18;;;;;;;11.30;4.70;;;7.10;99.90;;;;;;4991137;28;20019;-48
2023/01/03 01:21:44;;;;;;;9.35;4.72;;;7.10;99.90;;;;;;4991213;28;20113;-49
2023/01/03 01:24:10;;;;;;;10.05;5.05;;;7.10;99.90;;;;;;4991071;28;20027;-48
2023/01/03 01:26:36;;;;;;;7.15;4.10;;;7.10;99.90;;;;;;4991305;28;20129;-48
2023/01/03 01:29:02;;;;;;;10.07;4.35;;;7.10;99.90;;;;;;4991237;28;20470;-47
2023/01/03 01:31:28;;;;;;;10.60;4.80;;;7.10;99.90;;;;;;4991284;28;20049;-47
2023/01/03 01:33:55;;;;;;;11.93;5.10;;;7.20;99.90;;;;;;4991300;28;20038;-48
2023/01/03 01:36:25;;;;;;;12.48;5.30;;;7.20;99.90;;;;;;4991120;28;20018;-48
2023/01/03 01:38:58;;;;;;;12.32;5.28;;;7.30;99.90;;;;;;4991562;28;20065;-48
2023/01/03 01:44:39;;;;;;;12.90;4.85;;;7.30;99.90;;;;;;4995456;28;20041;-48
2023/01/03 01:47:28;;;;;;;10.80;4.88;;;7.30;99.90;;;;;;4984586;28;20046;-48
2023/01/03 01:50:12;;;;;;;12.45;4.55;;;7.30;99.90;;;;;;4994934;28;20109;-48
2023/01/03 01:52:53;;;;;;;13.15;4.75;;;7.30;99.90;;;;;;4994958;28;20038;-48
2023/01/03 01:55:23;;;;;;;8.50;4.15;;;7.30;99.90;;;;;;4994689;28;20022;-49
2023/01/03 01:57:49;;;;;;;8.35;4.38;;;7.40;99.90;;;;;;4994900;28;20034;-55
2023/01/03 02:00:15;;;;;;;13.60;4.00;;;7.40;99.90;;;;;;4994715;28;20034;-47
2023/01/03 02:02:42;;;;;;;19.92;4.40;;;7.50;99.90;;;;;;4994969;28;20026;-47
2023/01/03 02:05:08;;;;;;;6.30;3.58;;;7.50;99.90;;;;;;4994552;28;20030;-47
2023/01/03 02:07:34;;;;;;;11.32;4.20;;;7.50;99.90;;;;;;4994793;28;20029;-48
2023/01/03 02:10:00;;;;;;;10.18;3.95;;;7.60;99.90;;;;;;4994449;28;20031;-48
2023/01/03 02:13:04;;;;;;;10.20;4.30;;;7.60;99.90;;;;;;4994481;28;20022;-47
2023/01/03 02:16:03;;;;;;;11.48;3.97;;;7.60;99.90;;;;;;4994282;28;20026;-47
2023/01/03 02:18:38;;;;;;;12.60;3.95;;;7.70;99.90;;;;;;4994473;28;20038;-53
2023/01/03 02:21:06;;;;;;;6.82;3.92;;;7.70;99.90;;;;;;4994251;28;20427;-48
2023/01/03 02:23:32;;;;;;;9.77;4.10;;;7.80;99.90;;;;;;4993699;28;20036;-48
2023/01/03 02:26:15;;;;;;;9.57;4.03;;;7.80;99.90;;;;;;5013024;28;20397;-47
2023/01/03 02:28:56;;;;;;;9.63;4.13;;;7.80;99.90;;;;;;5013386;28;20030;-47
2023/01/03 02:31:28;;;;;;;10.98;4.00;;;7.90;99.90;;;;;;5013589;28;20018;-48
2023/01/03 02:34:20;;;;;;;12.68;3.90;;;7.80;99.90;;;;;;5013736;28;20034;-47
2023/01/03 02:37:06;;;;;;;16.63;4.07;;;7.90;99.90;;;;;;5013053;28;20540;-49
2023/01/03 02:39:46;;;;;;;9.88;3.38;;;7.90;99.90;;;;;;5013907;28;20048;-48
2023/01/03 02:43:04;;;;;;;11.20;4.30;;;8.00;99.90;;;;;;5013446;28;20508;-48
2023/01/03 02:45:58;;;;;;;19.25;4.05;;;8.00;99.90;;;;;;5013344;28;20034;-48
2023/01/03 02:48:36;;;;;;;9.68;3.33;;;8.00;99.90;;;;;;4992520;28;20076;-48
2023/01/03 02:51:09;;;;;;;10.73;3.35;;;8.10;99.90;;;;;;5013159;28;20414;-47
2023/01/03 02:53:43;;;;;;;11.65;3.50;;;8.10;99.90;;;;;;5013276;28;20485;-47
2023/01/03 02:56:13;;;;;;;14.27;3.38;;;8.10;99.90;;;;;;5013420;28;20030;-48
2023/01/03 02:58:42;;;;;;;10.70;3.72;;;8.20;99.90;;;;;;5013177;28;20045;-50
2023/01/03 03:01:11;;;;;;;14.07;3.35;;;8.20;99.90;;;;;;5013210;28;20225;-47
2023/01/03 03:03:38;;;;;;;7.90;3.23;;;8.30;99.90;;;;;;5013122;28;20041;-48
2023/01/03 03:06:19;;;;;;;9.35;2.88;;;8.20;99.90;;;;;;5012831;28;20278;-48
2023/01/03 03:08:46;;;;;;;23.33;3.60;;;8.20;99.90;;;;;;5013012;28;20021;-48
2023/01/03 03:14:00;;;;;;;12.07;2.50;;;8.40;99.90;;;;;;5008645;28;20025;-47
2023/01/03 03:16:48;;;;;;;9.23;2.35;;;8.50;99.90;;;;;;4976679;28;20034;-48
2023/01/03 03:24:48;;;;;;;7.95;2.33;;;8.50;99.90;;;;;;4981430;28;20047;-47
2023/01/03 03:24:52;;;;;;;7.95;2.35;;;8.50;99.90;;;;;;4988290;28;20073;-49
2023/01/03 03:30:10;;;;;;;10.38;2.55;;;8.50;99.90;;;;;;4992986;28;20037;-47
2023/01/03 03:32:39;;;;;;;12.27;2.50;;;8.40;99.90;;;;;;5000364;28;20065;-51
2023/01/03 03:35:10;;;;;;;14.93;2.80;;;8.40;99.90;;;;;;5012504;28;20041;-48
2023/01/03 03:37:38;;;;;;;12.25;2.97;;;8.30;99.90;;;;;;5012253;28;20034;-50
2023/01/03 03:46:02;;;;;;;9.45;2.33;;;8.20;99.90;;;;;;5012515;28;20508;-47
2023/01/03 03:51:26;;;;;;;9.35;2.45;;;8.30;99.90;;;;;;5012024;28;20053;-50
2023/01/03 03:53:53;;;;;;;14.50;2.72;;;8.30;99.90;;;;;;5012098;28;20370;-48
2023/01/03 03:56:23;;;;;;;14.13;2.70;;;8.30;99.90;;;;;;5012039;28;20477;-48
2023/01/03 03:58:54;;;;;;;10.40;2.05;;;8.40;99.90;;;;;;5012097;28;20038;-47
2023/01/03 04:01:21;;;;;;;10.82;2.20;;;8.40;99.90;;;;;;5011941;28;20089;-51
2023/01/03 04:03:49;;;;;;;13.77;3.08;;;8.40;99.90;;;;;;5011689;28;20120;-50
2023/01/03 04:06:49;;;;;;;13.13;2.50;;;8.50;99.90;;;;;;5011735;28;20094;-50
2023/01/03 04:09:15;;;;;;;12.38;2.88;;;8.50;99.90;;;;;;4997670;28;20034;-47
2023/01/03 04:11:41;;;;;;;13.30;3.03;;;8.50;99.90;;;;;;5011868;28;20072;-49
2023/01/03 04:14:07;;;;;;;16.02;2.42;;;8.60;99.90;;;;;;5011924;28;20025;-48
2023/01/03 04:16:32;;;;;;;15.68;3.13;;;8.70;99.90;;;;;;5011639;28;20024;-47
2023/01/03 04:18:58;;;;;;;9.45;2.10;;;8.70;99.90;;;;;;5011731;28;20095;-51
2023/01/03 04:21:24;;;;;;;17.45;2.47;;;8.80;99.90;;;;;;5011932;28;20018;-51
2023/01/03 04:23:49;;;;;;;16.80;2.55;;;8.80;99.90;;;;;;5011729;28;20069;-47
2023/01/03 04:26:16;;;;;;;16.23;2.50;;;8.80;99.90;;;;;;5011506;28;20046;-52
2023/01/03 04:28:42;;;;;;;15.82;2.17;;;8.80;99.90;;;;;;5011754;28;20022;-47
2023/01/03 04:31:08;;;;;;;17.02;2.72;;;8.90;99.90;;;;;;5011232;28;20079;-48
2023/01/03 04:33:33;;;;;;;14.35;2.28;;;8.80;99.90;;;;;;5010752;28;20041;-50
2023/01/03 04:35:59;;;;;;;13.73;2.33;;;8.80;99.90;;;;;;5011419;28;20018;-47
2023/01/03 04:38:25;;;;;;;9.20;2.10;;;8.80;99.90;;;;;;5011136;28;20046;-49
2023/01/03 04:40:50;;;;;;;12.10;2.28;;;8.90;99.90;;;;;;5011221;28;20125;-48
2023/01/03 04:46:00;;;;;;;17.27;2.10;;;9.00;99.90;;;;;;5011357;28;20381;-50
2023/01/03 04:48:26;;;;;;;16.45;2.42;;;9.00;99.90;;;;;;5011310;28;20030;-47
2023/01/03 04:50:56;;;;;;;12.68;2.33;;;9.00;99.90;;;;;;5011273;28;20073;-51
2023/01/03 04:53:23;;;;;;;12.35;2.15;;;9.00;99.90;;;;;;5011468;28;20113;-47
2023/01/03 04:55:50;;;;;;;17.58;2.20;;;8.90;99.90;;;;;;5011141;28;20069;-46
2023/01/03 04:58:16;;;;;;;9.18;2.35;;;8.80;99.90;;;;;;5011232;28;20068;-47
2023/01/03 05:00:42;;;;;;;14.38;2.72;;;8.80;99.90;;;;;;4998729;28;20534;-58
2023/01/03 05:03:07;;;;;;;14.88;2.42;;;8.80;99.90;;;;;;5011291;28;20057;-50
2023/01/03 05:05:35;;;;;;;15.95;1.63;;;8.70;99.90;;;;;;5011462;28;20026;-49
2023/01/03 05:08:04;;;;;;;11.20;2.10;;;8.70;99.90;;;;;;5011225;28;20029;-48
2023/01/03 05:10:31;;;;;;;9.25;1.67;;;8.70;99.90;;;;;;5011003;28;20018;-48
2023/01/03 05:12:59;;;;;;;9.85;2.05;;;8.60;99.90;;;;;;5010678;28;20037;-48
2023/01/03 05:15:26;;;;;;;18.15;2.45;;;8.70;99.90;;;;;;5010063;28;20058;-47
2023/01/03 05:17:52;;;;;;;18.25;2.17;;;8.70;99.90;;;;;;5010688;28;20049;-48
2023/01/03 05:25:51;;;;;;;7.82;1.40;;;8.60;99.90;;;;;;5010631;28;20072;-50
2023/01/03 05:28:19;;;;;;;13.07;1.70;;;8.60;99.90;;;;;;5010721;28;20049;-52
2023/01/03 05:30:45;;;;;;;10.32;2.15;;;8.70;99.90;;;;;;5010703;28;20026;-54
2023/01/03 05:33:10;;;;;;;11.55;1.75;;;8.70;99.90;;;;;;5010591;28;20029;-51
2023/01/03 05:35:37;;;;;;;11.30;1.58;;;8.70;99.90;;;;;;5010703;28;20032;-52
2023/01/03 05:38:02;;;;;;;8.57;1.55;;;8.70;99.90;;;;;;5010748;28;20025;-50
2023/01/03 05:40:28;;;;;;;10.13;1.90;;;8.80;99.90;;;;;;5010354;28;20106;-47
2023/01/03 05:42:54;;;;;;;6.57;1.33;;;8.70;99.90;;;;;;5010631;28;20018;-50
2023/01/03 05:45:24;;;;;;;14.05;1.83;;;8.70;99.90;;;;;;5010522;28;20034;-50
2023/01/03 05:47:50;;;;;;;11.30;1.80;;;8.70;99.90;;;;;;5010850;28;20053;-48
2023/01/03 05:50:16;;;;;;;16.50;3.25;;;8.70;99.90;;;;;;5010330;28;20022;-51
2023/01/03 05:52:42;;;;;;;13.98;1.58;;;8.80;99.90;;;;;;5010037;28;20022;-48
2023/01/03 05:55:08;;;;;;;11.52;1.80;;;8.80;99.90;;;;;;4992773;28;20037;-48
2023/01/03 05:57:34;;;;;;;8.57;1.75;;;8.80;99.90;;;;;;5009920;28;20707;-48
2023/01/03 05:59:59;;;;;;;12.32;1.77;;;8.80;99.90;;;;;;5010613;28;20026;-49
2023/01/03 06:02:26;;;;;;;15.13;1.85;;;8.90;99.90;;;;;;5010136;28;20076;-47
2023/01/03 06:04:52;;;;;;;10.77;1.58;;;8.90;99.90;;;;;;5010542;28;20026;-47
2023/01/03 06:07:17;;;;;;;14.88;1.63;;;8.90;99.90;;;;;;5010424;28;20026;-49
2023/01/03 06:09:43;;;;;;;9.35;1.55;;;8.90;99.90;;;;;;5009790;28;20025;-47
2023/01/03 06:12:08;;;;;;;12.48;1.98;;;8.90;99.90;;;;;;5010441;28;20034;-47
2023/01/03 06:14:34;;;;;;;11.05;1.67;;;8.90;99.90;;;;;;5010128;28;20056;-47
2023/01/03 06:19:44;;;;;;;8.40;2.20;;;9.00;99.90;;;;;;5010391;28;20033;-48
2023/01/03 06:22:09;;;;;;;9.13;1.58;;;9.00;99.90;;;;;;5010295;28;20029;-48
2023/01/03 06:24:35;;;;;;;12.60;1.65;;;9.00;99.90;;;;;;5010286;28;20478;-47
2023/01/03 06:27:00;;;;;;;10.50;1.80;;;9.00;99.90;;;;;;5013197;28;20046;-47
2023/01/03 06:29:26;;;;;;;14.40;2.38;;;9.00;99.90;;;;;;5013718;28;20069;-47
2023/01/03 06:31:51;;;;;;;15.38;1.80;;;9.00;99.90;;;;;;5013510;28;20031;-48
2023/01/03 06:34:17;;;;;;;20.35;2.75;;;9.00;99.90;;;;;;5013515;28;20034;-49
2023/01/03 06:36:43;;;;;;;11.35;1.33;;;9.00;99.90;;;;;;5002397;28;20031;-47
2023/01/03 06:39:08;;;;;;;9.88;1.80;;;9.00;99.90;;;;;;5012598;28;20037;-47
2023/01/03 06:41:34;;;;;;;14.02;1.75;;;9.00;99.90;;;;;;5013367;28;20484;-47
2023/01/03 06:43:59;;;;;;;7.07;1.92;;;9.00;99.90;;;;;;5013264;28;20493;-47
2023/01/03 06:54:44;;;;;;;11.35;1.73;;;8.80;99.90;;;;;;5013706;28;20024;-51
2023/01/03 06:57:10;;;;;;;8.73;1.83;;;8.80;99.90;;;;;;5013293;28;20038;-48
2023/01/03 06:59:36;;;;;;;11.73;2.05;;;8.70;99.90;;;;;;5012954;28;20022;-47
2023/01/03 07:02:01;;;;;;;15.52;2.20;;;8.70;99.90;;;;;;5013182;28;20030;-47
2023/01/03 07:04:27;;;;;;;10.32;1.80;;;8.70;99.90;;;;;;5013046;28;20021;-48
2023/01/03 07:06:53;;;;;;;11.60;1.90;;;8.70;99.90;;;;;;5013289;28;20025;-47
2023/01/03 07:09:18;;;;;;;12.48;2.00;;;8.80;99.90;;;;;;5012974;28;20018;-49
2023/01/03 07:11:44;;;;;;;12.30;1.50;;;8.80;99.90;;;;;;5012970;28;20022;-48
2023/01/03 07:14:11;;;;;;;11.60;1.83;;;8.70;99.90;;;;;;5012781;28;20061;-47
2023/01/03 07:16:40;;;;;;;12.95;1.40;;;8.70;99.90;;;;;;5012786;28;20113;-48
2023/01/03 07:19:07;;;;;;;10.15;1.83;;;8.70;99.90;;;;;;5012628;28;20044;-47
2023/01/03 07:21:34;;;;;;;12.82;2.03;;;8.80;99.90;;;;;;5012372;28;20437;-47
2023/01/03 07:24:02;;;;;;;14.43;2.55;;;8.80;99.90;;;;;;5012295;28;20021;-47
2023/01/03 07:26:29;;;;;;;12.88;1.95;;;8.70;99.90;;;;;;4974392;28;20386;-52
2023/01/03 07:28:56;;;;;;;16.27;2.58;;;8.80;99.90;;;;;;4969669;28;20034;-47
2023/01/03 07:31:22;;;;;;;16.80;2.58;;;8.80;99.90;;;;;;4969001;28;20026;-47
2023/01/03 07:33:48;;;;;;;15.48;1.90;;;8.80;99.90;;;;;;4965773;28;20419;-47
2023/01/03 07:36:14;;;;;;;18.90;3.28;;;8.90;99.90;;;;;;4972162;28;20037;-47
2023/01/03 07:38:43;;;;;;;11.80;1.95;;;9.00;99.90;;;;;;4960864;28;20125;-48
2023/01/03 07:41:09;;;;;;;16.83;2.60;;;9.00;99.90;;;;;;4971472;28;20099;-48
2023/01/03 07:43:37;;;;;;;20.73;2.10;;;9.10;99.90;;;;;;4960561;28;20042;-47
2023/01/03 07:46:18;;;;;;;18.95;2.28;;;9.20;99.90;;;;;;4970286;28;20023;-47
2023/01/03 07:48:46;;;;;;;13.90;2.05;;;9.20;99.90;;;;;;4960063;28;20042;-47
2023/01/03 07:51:13;;;;;;;24.05;2.15;;;9.30;99.90;;;;;;4970256;28;20037;-47
2023/01/03 07:53:39;;;;;;;20.00;2.28;;;9.30;99.90;;;;;;4973046;28;20018;-49
2023/01/03 07:56:08;;;;;;;22.35;2.50;;;9.30;99.90;;;;;;4973049;28;20042;-48
2023/01/03 07:58:34;;;;;;;19.38;3.08;;;9.40;99.90;;;;;;4970325;28;20122;-46
2023/01/03 08:01:14;;;;;;;14.00;2.00;;;9.40;99.90;;;;;;4970827;28;20022;-48
2023/01/03 08:03:41;;;;;;;14.65;2.30;;;9.50;99.90;;;;;;4984165;28;20072;-49
2023/01/03 08:06:12;;;;;;;17.92;3.05;;;9.50;99.90;;;;;;4992683;28;20101;-48
2023/01/03 08:08:38;;;;;;;22.00;2.47;;;9.50;99.90;;;;;;4983812;28;20065;-47
2023/01/03 08:13:49;;;;;;;20.35;3.20;;;9.50;99.90;;;;;;4972710;28;20233;-50
2023/01/03 08:16:17;;;;;;;23.95;2.53;;;9.40;99.90;;;;;;4972318;28;20030;-47
2023/01/03 08:18:43;;;;;;;18.90;2.95;;;9.50;99.90;;;;;;4961874;28;20133;-47
2023/01/03 08:21:12;;;;;;;16.02;2.15;;;9.40;99.90;;;;;;4966139;28;20031;-50
2023/01/03 08:23:39;;;;;;;24.37;3.20;;;9.40;99.90;;;;;;4972159;28;20111;-49
2023/01/03 08:26:09;;;;;;;13.27;2.30;;;9.40;99.90;;;;;;4976751;28;20050;-47
2023/01/03 08:28:35;;;;;;;22.65;2.85;;;9.40;99.90;;;;;;4991725;28;20014;-48
2023/01/03 08:31:24;;;;;;;19.33;2.92;;;9.40;99.90;;;;;;4989794;28;20022;-47
2023/01/03 08:34:00;;;;;;;14.18;2.67;;;9.40;99.90;;;;;;5007311;28;20091;-50
2023/01/03 08:36:30;;;;;;;22.67;4.15;;;9.50;99.90;;;;;;5009489;28;20099;-47
2023/01/03 08:39:05;;;;;;;23.85;3.13;;;9.50;99.90;;;;;;5009245;28;20022;-51
2023/01/03 08:41:36;;;;;;;21.85;4.10;;;9.60;99.90;;;;;;5009609;28;20037;-48
2023/01/03 08:44:05;;;;;;;22.08;3.00;;;9.60;99.90;;;;;;5004627;28;20389;-47
2023/01/03 08:46:32;;;;;;;21.13;3.80;;;9.60;99.90;;;;;;4981805;28;20066;-50
2023/01/03 08:48:59;;;;;;;18.13;3.38;;;9.70;99.90;;;;;;4987983;28;20027;-49
2023/01/03 08:51:25;;;;;;;15.95;3.28;;;9.70;99.90;;;;;;4991068;28;20034;-48
2023/01/03 08:53:51;;;;;;;15.68;2.83;;;9.70;99.90;;;;;;4991376;28;20042;-47
2023/01/03 08:56:20;;;;;;;16.67;3.25;;;9.80;99.90;;;;;;4989041;28;20109;-46
2023/01/03 08:58:45;;;;;;;23.85;2.63;;;9.80;99.90;;;;;;4991471;28;20042;-48
2023/01/03 09:01:11;;;;;;;18.92;3.83;;;9.80;99.90;;;;;;4990781;28;20023;-52
2023/01/03 09:03:37;;;;;;;22.30;3.97;;;9.80;99.90;;;;;;4991257;28;20030;-51
2023/01/03 09:06:03;;;;;;;14.65;2.78;;;9.80;99.90;;;;;;4990561;28;20084;-51
2023/01/03 09:08:33;;;;;;;21.60;2.72;;;9.90;99.90;;;;;;4987920;28;20119;-46
2023/01/03 09:11:06;;;;;;;18.85;3.08;;;9.90;99.90;;;;;;4989674;28;20493;-47
2023/01/03 09:13:32;;;;;;;15.70;2.53;;;10.00;99.90;;;;;;4990564;28;20027;-47
2023/01/03 09:16:07;;;;;;;14.32;2.22;;;10.10;99.90;;;;;;4979764;28;20164;-48
2023/01/03 09:18:35;;;;;;;19.83;3.28;;;10.10;99.90;;;;;;4986959;28;20053;-48
2023/01/03 09:21:02;;;;;;;14.52;2.38;;;10.20;99.90;;;;;;4988323;28;20018;-45
2023/01/03 09:23:28;;;;;;;18.23;2.22;;;10.20;99.90;;;;;;4978295;28;20034;-48
2023/01/03 09:25:53;;;;;;;18.35;2.10;;;10.20;99.90;;;;;;4987303;28;20436;-55
2023/01/03 09:28:19;;;;;;;18.17;2.38;;;10.20;99.90;;;;;;4967248;28;20030;-50
2023/01/03 09:30:45;;;;;;;13.80;2.38;;;10.30;99.90;;;;;;4990096;28;20023;-48
2023/01/03 09:33:10;;;;;;;18.88;2.47;;;10.30;99.90;;;;;;5001214;28;20048;-50
2023/01/03 09:35:36;;;;;;;16.10;1.88;;;10.20;99.90;;;;;;5010370;28;20037;-46
2023/01/03 09:38:02;;;;;;;18.98;1.83;;;10.20;99.90;;;;;;4994404;28;20031;-46
2023/01/03 09:40:35;;;;;;;15.00;2.45;;;10.20;99.90;;;;;;4983929;28;20034;-48
2023/01/03 09:43:12;;;;;;;21.05;3.47;;;10.30;99.90;;;;;;4979096;28;20031;-53
2023/01/03 09:46:00;;;;;;;21.23;2.95;;;10.30;99.90;;;;;;4974405;28;20085;-47
2023/01/03 09:48:34;;;;;;;12.15;2.33;;;10.40;99.90;;;;;;4983209;28;20030;-47
2023/01/03 09:51:00;;;;;;;16.92;2.30;;;10.40;99.90;;;;;;4989255;28;20026;-45
2023/01/03 10:05:32;;;;;;;12.20;2.15;;;10.60;99.90;;;;;;4985582;28;20104;-44
2023/01/03 10:08:16;;;;;;;17.42;2.45;;;10.60;99.90;;;;;;4994432;28;20022;-45
2023/01/03 10:11:10;;;;;;;17.50;2.92;;;10.60;99.90;;;;;;4994501;28;20053;-45
2023/01/03 10:13:51;;;;;;;21.42;2.65;;;10.60;99.90;;;;;;4984016;28;20033;-47
2023/01/03 10:16:24;;;;;;;19.25;3.10;;;10.70;99.90;;;;;;4991732;28;20045;-43
2023/01/03 10:19:09;;;;;;;20.23;2.50;;;10.70;99.90;;;;;;4993832;28;20401;-44
2023/01/03 10:22:03;;;;;;;17.33;3.13;;;10.70;99.90;;;;;;4987720;28;20051;-46
2023/01/03 10:24:31;;;;;;;15.90;2.63;;;10.70;99.90;;;;;;4991869;28;20061;-48
2023/01/03 10:27:12;;;;;;;15.65;2.53;;;10.60;99.90;;;;;;4994086;28;20085;-43
2023/01/03 10:29:38;;;;;;;21.38;2.95;;;10.70;99.90;;;;;;4993918;28;20030;-47
2023/01/03 10:32:13;;;;;;;20.50;2.60;;;10.70;99.90;;;;;;4997082;28;20026;-43
2023/01/03 10:34:38;;;;;;;20.15;3.20;;;10.80;99.90;;;;;;5013724;28;20026;-45
2023/01/03 10:37:25;;;;;;;25.05;2.53;;;10.70;99.90;;;;;;5008647;28;20038;-43
2023/01/03 10:40:01;;;;;;;21.42;2.55;;;10.80;99.90;;;;;;4987536;28;20030;-47
2023/01/03 10:42:31;;;;;;;25.40;2.75;;;10.80;99.90;;;;;;4993647;28;20022;-46
2023/01/03 10:45:03;;;;;;;21.85;2.53;;;10.80;99.90;;;;;;4992524;28;20384;-46
2023/01/03 10:47:29;;;;;;;23.00;3.42;;;10.90;99.90;;;;;;4992575;28;20034;-45
2023/01/03 10:50:04;;;;;;;19.70;2.20;;;11.00;99.90;;;;;;4993236;28;20022;-46
2023/01/03 10:52:39;;;;;;;17.45;2.10;;;11.20;99.90;;;;;;4990745;28;20029;-49
2023/01/03 10:55:17;;;;;;;16.38;3.55;;;11.30;99.90;;;;;;4993647;28;20031;-45
2023/01/03 10:58:04;;;;;;;21.20;2.40;;;11.40;99.90;;;;;;4992932;28;20587;-45
2023/01/03 11:00:36;;;;;;;15.90;2.70;;;11.50;99.90;;;;;;4975269;28;20037;-45
2023/01/03 11:03:10;;;;;;;17.70;2.30;;;11.50;99.90;;;;;;4992531;28;20113;-57
2023/01/03 11:05:37;;;;;;;12.20;1.83;;;11.50;99.90;;;;;;4992772;28;20141;-46
2023/01/03 11:08:05;;;;;;;19.15;2.55;;;11.50;99.90;;;;;;4985493;28;20015;-49
2023/01/03 11:10:47;;;;;;;18.35;2.17;;;11.50;99.90;;;;;;4985365;28;20034;-53
2023/01/03 11:13:28;;;;;;;15.27;1.92;;;11.50;99.90;;;;;;4992372;28;20026;-43
2023/01/03 11:16:00;;;;;;;20.42;2.78;;;11.40;99.90;;;;;;4979591;28;20031;-46
2023/01/03 11:18:27;;;;;;;17.38;2.05;;;11.20;99.90;;;;;;4992742;28;20033;-44
2023/01/03 11:21:10;;;;;;;19.60;2.70;;;11.20;99.90;;;;;;4993403;28;20078;-46
2023/01/03 11:23:54;;;;;;;14.52;2.88;;;11.20;99.90;;;;;;4993261;28;20026;-44
2023/01/03 11:26:23;;;;;;;14.32;1.90;;;11.10;99.90;;;;;;4989291;28;20050;-48
2023/01/03 11:28:54;;;;;;;26.23;3.10;;;11.00;99.90;;;;;;4992947;28;20018;-50
2023/01/03 11:31:37;;;;;;;23.02;2.22;;;11.00;99.90;;;;;;4992920;28;20109;-45
2023/01/03 11:34:43;;;;;;;14.23;3.28;;;10.80;99.90;;;;;;5012118;28;20087;-52
2023/01/03 11:37:53;;;;;;;19.95;2.67;;;10.70;99.90;;;;;;5012372;28;20052;-51
2023/01/03 11:40:32;;;;;;;;;;;10.70;99.90;;;;;;4942576;28;20052;-49
2023/01/03 11:43:11;;;;;;;23.38;2.25;;;10.60;99.90;;;;;;5012473;28;20380;-47
2023/01/03 11:45:49;;;;;;;16.98;2.38;;;10.60;99.90;;;;;;5012384;28;20462;-44
2023/01/03 11:48:27;;;;;;;16.23;2.50;;;10.50;99.90;;;;;;5012436;28;20037;-50
2023/01/03 11:51:20;;;;;;;21.08;2.28;;;10.60;99.90;;;;;;5012125;28;20389;-51
2023/01/03 11:54:07;;;;;;;16.60;2.33;;;10.60;99.90;;;;;;4981639;28;20037;-49
2023/01/03 11:56:43;;;;;;;20.92;2.83;;;10.60;99.90;;;;;;4990046;28;20033;-45
2023/01/03 11:59:55;;;;;;;13.60;2.30;;;10.60;99.90;;;;;;5012434;28;20112;-47
2023/01/03 12:02:30;;;;;;;23.10;3.03;;;10.60;99.90;;;;;;5011915;28;20080;-43
2023/01/03 12:05:08;;;;;;;14.73;2.20;;;10.50;99.90;;;;;;5012176;28;20022;-53
2023/01/03 12:07:36;;;;;;;20.42;2.70;;;10.50;99.90;;;;;;5011763;28;20025;-50
2023/01/03 12:10:34;;;;;;;17.88;2.53;;;10.40;99.90;;;;;;4994594;28;20045;-46
2023/01/03 12:12:59;;;;;;;14.52;2.40;;;10.40;99.90;;;;;;4969216;28;20423;-50
2023/01/03 12:15:34;;;;;;;25.67;2.97;;;10.50;99.90;;;;;;4982447;28;20202;-50
2023/01/03 12:18:14;;;;;;;16.63;2.45;;;10.40;99.90;;;;;;4990896;28;20122;-52
2023/01/03 12:20:42;;;;;;;;;;;10.40;99.90;;;;;;4992243;28;20076;-44
2023/01/03 12:23:14;;;;;;;17.20;2.05;;;10.40;99.90;;;;;;4989886;28;19906;-54
2023/01/03 12:25:51;;;;;;;22.08;3.05;;;10.30;99.90;;;;;;4984305;28;20041;-48
2023/01/03 12:28:42;;;;;;;18.73;2.97;;;10.30;99.90;;;;;;4990418;28;20026;-51
2023/01/03 12:31:31;;;;;;;21.90;2.65;;;10.30;99.90;;;;;;4984722;28;20034;-49
2023/01/03 12:34:20;;;;;;;14.18;2.60;;;10.30;99.90;;;;;;4996138;28;20458;-46
2023/01/03 12:36:48;;;;;;;19.05;2.92;;;10.20;99.90;;;;;;4990079;28;20030;-50
2023/01/03 12:39:44;;;;;;;12.50;2.42;;;10.20;99.90;;;;;;4987783;28;20093;-55
2023/01/03 12:42:28;;;;;;;14.93;2.33;;;10.10;99.90;;;;;;4990519;28;20072;-47
2023/01/03 12:45:24;;;;;;;24.90;3.63;;;10.00;99.90;;;;;;4990276;28;20105;-52
2023/01/03 12:47:53;;;;;;;15.48;2.20;;;10.00;99.90;;;;;;4989621;28;20145;-48
2023/01/03 12:50:41;;;;;;;23.60;3.47;;;10.00;99.90;;;;;;4990496;28;20041;-49
2023/01/03 12:53:10;;;;;;;17.00;3.05;;;10.10;99.90;;;;;;4990048;28;20555;-44
2023/01/03 12:55:54;;;;;;;25.92;3.35;;;10.10;99.90;;;;;;4986874;28;20027;-45
2023/01/03 12:58:52;;;;;;;32.45;3.10;;;10.10;99.90;;;;;;4984596;28;20038;-50
2023/01/03 13:01:39;;;;;;;25.42;2.67;;;10.10;99.90;;;;;;4986574;28;20474;-45
2023/01/03 13:04:18;;;;;;;23.38;3.33;;;10.10;99.90;;;;;;4990195;28;20054;-50
2023/01/03 13:06:57;;;;;;;24.85;2.92;;;10.10;99.90;;;;;;4988171;28;20029;-53
2023/01/03 13:09:35;;;;;;;24.70;3.20;;;10.00;99.90;;;;;;4990337;28;20460;-46
2023/01/03 13:12:23;;;;;;;23.20;4.03;;;10.10;99.90;;;;;;4990436;28;20027;-55
2023/01/03 13:14:49;;;;;;;22.67;3.88;;;10.00;99.90;;;;;;4990276;28;20105;-48
2023/01/03 13:17:18;;;;;;;22.08;4.13;;;10.00;99.90;;;;;;4990378;28;20157;-51
2023/01/03 13:20:13;;;;;;;26.80;2.67;;;10.10;99.90;;;;;;4990482;28;20076;-50
2023/01/03 13:22:49;;;;;;;27.00;3.45;;;10.10;99.90;;;;;;4984220;28;20019;-51
2023/01/03 13:25:27;;;;;;;23.13;3.28;;;10.10;99.90;;;;;;4990587;28;20060;-46
2023/01/03 13:27:57;;;;;;;24.13;3.40;;;10.10;99.90;;;;;;4951229;28;1117092;-50
2023/01/03 13:30:25;;;;;;;26.42;3.10;;;10.10;99.90;;;;;;4991160;28;20036;-47
2023/01/03 13:33:15;;;;;;;27.25;3.25;;;10.10;99.90;;;;;;5000641;28;20022;-46
2023/01/03 13:35:44;;;;;;;27.75;3.42;;;10.20;99.90;;;;;;4999590;28;20041;-48
2023/01/03 13:38:26;;;;;;;28.48;2.83;;;10.20;99.90;;;;;;5014712;28;20040;-44
2023/01/03 13:41:01;;;;;;;33.88;3.30;;;10.10;99.90;;;;;;5014630;28;20076;-50
2023/01/03 13:43:36;;;;;;;24.38;3.53;;;10.20;99.90;;;;;;5014745;28;20489;-44
2023/01/03 13:46:30;;;;;;;24.15;3.15;;;10.20;99.90;;;;;;5014784;28;20029;-44
2023/01/03 13:48:59;;;;;;;19.85;2.90;;;10.30;99.90;;;;;;5014510;28;20037;-48
2023/01/03 13:51:48;;;;;;;17.23;3.10;;;10.30;99.90;;;;;;5014337;28;20045;-50
2023/01/03 13:54:17;;;;;;;22.73;2.97;;;10.30;99.90;;;;;;5014047;28;20337;-51
2023/01/03 13:56:42;;;;;;;21.77;2.88;;;10.40;99.90;;;;;;4998241;28;20027;-47
2023/01/03 13:59:14;;;;;;;28.23;2.95;;;10.40;99.90;;;;;;4984965;28;20042;-46
2023/01/03 14:01:50;;;;;;;23.60;3.15;;;10.40;99.90;;;;;;4994146;28;20030;-46
2023/01/03 14:04:52;;;;;;;24.45;2.80;;;10.50;99.90;;;;;;4994014;28;20227;-47